createdAt,value
2022-09-09T03:51:00.912Z,0.1
2022-09-09T03:53:00.985Z,0.2
2022-09-09T03:54:00.887Z,0.3
2022-09-09T03:56:02.137Z,0.4
2022-09-09T03:57:00.887Z,0.5
2022-09-09T03:59:00.893Z,0.6
2022-09-09T04:01:01.240Z,0.8
2022-09-09T04:02:00.933Z,0.9
2022-09-09T04:03:00.924Z,1.1
2022-09-09T04:04:05.896Z,1.3
2022-09-09T04:05:00.899Z,1.5
2022-09-09T04:06:01.086Z,1.9
2022-09-09T04:07:00.913Z,2.2
2022-09-09T04:08:00.926Z,2.9
2022-09-09T04:09:00.891Z,3.5
2022-09-09T04:10:00.899Z,4.2
2022-09-09T04:11:01.739Z,5.2
2022-09-09T04:12:00.893Z,6.2
2022-09-09T04:13:00.909Z,7.8
2022-09-09T04:14:00.890Z,9.4
2022-09-09T04:15:01.400Z,11.0
2022-09-09T04:16:06.197Z,13.4
2022-09-09T04:17:00.891Z,15.8
2022-09-09T04:18:00.910Z,19.7
2022-09-09T04:19:00.902Z,23.5
2022-09-09T04:20:00.896Z,27.4
2022-09-09T04:21:01.258Z,32.4
2022-09-09T04:22:01.919Z,37.4
2022-09-09T04:23:00.916Z,44.5
2022-09-09T04:24:00.890Z,51.7
2022-09-09T04:25:01.903Z,58.8
2022-09-09T04:26:01.090Z,70.7
2022-09-09T04:27:00.888Z,82.7
2022-09-09T04:28:00.892Z,100.3
2022-09-09T04:29:00.917Z,117.9
2022-09-09T04:30:01.396Z,135.5
2022-09-09T04:31:01.099Z,156.7
2022-09-09T04:32:00.930Z,178.0
2022-09-09T04:33:00.903Z,205.5
2022-09-09T04:34:00.889Z,232.9
2022-09-09T04:35:00.896Z,260.4
2022-09-09T04:36:01.126Z,295.6
2022-09-09T04:37:00.893Z,330.8
2022-09-09T04:38:00.890Z,364.6
2022-09-09T04:39:00.933Z,398.4
2022-09-09T04:40:00.922Z,432.2
2022-09-09T04:41:01.129Z,469.5
2022-09-09T04:42:00.903Z,506.9
2022-09-09T04:43:00.894Z,557.5
2022-09-09T04:44:01.201Z,608.2
2022-09-09T04:45:01.516Z,658.9
2022-09-09T04:46:01.140Z,734.0
2022-09-09T04:47:00.893Z,809.1
2022-09-09T04:48:00.902Z,865.5
2022-09-09T04:49:00.915Z,921.9
2022-09-09T04:50:01.400Z,978.3
2022-09-09T04:51:01.133Z,1056.1
2022-09-09T04:52:00.905Z,1133.9
2022-09-09T04:53:00.902Z,1251.4
2022-09-09T04:54:00.890Z,1368.9
2022-09-09T04:55:01.007Z,1486.3
2022-09-09T04:56:01.132Z,1594.4
2022-09-09T04:57:00.890Z,1702.5
2022-09-09T04:58:00.969Z,1802.7
2022-09-09T04:59:00.894Z,1902.9
2022-09-09T05:00:01.397Z,2003.1
2022-09-09T05:01:15.960Z,2136.1
2022-09-09T05:02:01.156Z,2269.2
2022-09-09T05:03:01.983Z,2508.2
2022-09-09T05:04:00.892Z,2747.2
2022-09-09T05:05:01.059Z,2986.2
2022-09-09T05:06:00.893Z,3234.7
2022-09-09T05:07:01.143Z,3483.3
2022-09-09T05:08:00.957Z,3795.7
2022-09-09T05:09:00.901Z,4108.2
2022-09-09T05:10:00.907Z,4420.7
2022-09-09T05:11:00.926Z,4726.9
2022-09-09T05:12:01.149Z,5033.1
2022-09-09T05:13:00.908Z,5352.7
2022-09-09T05:14:00.895Z,5672.4
2022-09-09T05:15:02.618Z,5992.1
2022-09-09T05:16:00.967Z,6235.4
2022-09-09T05:17:01.201Z,6478.7
2022-09-09T05:18:00.898Z,6667.2
2022-09-09T05:19:00.898Z,6855.7
2022-09-09T05:20:01.416Z,7044.1
2022-09-09T05:21:00.901Z,7331.0
2022-09-09T05:22:01.111Z,7617.9
2022-09-09T05:23:00.897Z,7831.5
2022-09-09T05:24:00.900Z,8045.2
2022-09-09T05:25:00.916Z,8258.9
2022-09-09T05:26:00.906Z,8654.9
2022-09-09T05:27:01.422Z,9051.0
2022-09-09T05:28:00.907Z,9410.9
2022-09-09T05:29:00.900Z,9770.9
2022-09-09T05:31:00.924Z,10468.1
2022-09-09T05:32:01.237Z,10805.5
2022-09-09T05:33:00.908Z,11009.4
2022-09-09T05:34:00.905Z,11213.3
2022-09-09T05:35:00.924Z,11417.3
2022-09-09T05:36:00.914Z,11537.4
2022-09-09T05:37:01.159Z,11657.5
2022-09-09T05:38:00.920Z,11800.6
2022-09-09T05:39:00.909Z,11943.7
2022-09-09T05:40:00.972Z,12086.7
2022-09-09T05:41:00.909Z,12158.8
2022-09-09T05:42:07.582Z,12230.9
2022-09-09T05:43:00.980Z,12346.1
2022-09-09T05:44:00.914Z,12461.4
2022-09-09T05:45:01.546Z,12576.7
2022-09-09T05:46:00.947Z,12894.8
2022-09-09T05:47:01.191Z,13212.9
2022-09-09T05:48:06.219Z,13789.6
2022-09-09T05:49:00.908Z,14366.3
2022-09-09T05:50:00.917Z,14942.9
2022-09-09T05:51:02.000Z,15465.5
2022-09-09T05:52:01.121Z,15988.0
2022-09-09T05:53:00.947Z,16464.8
2022-09-09T05:54:00.908Z,16941.6
2022-09-09T05:56:00.937Z,17674.6
2022-09-09T05:57:01.109Z,17930.8
2022-09-09T05:58:05.989Z,18597.3
2022-09-09T05:59:00.913Z,19263.7
2022-09-09T06:03:01.198Z,23070.5
2022-09-09T06:15:02.007Z,31736.5
2022-09-09T06:16:00.950Z,32077.8
2022-09-09T06:17:00.911Z,32419.1
2022-09-09T06:18:00.930Z,31561.2
2022-09-09T06:19:00.946Z,30703.3
2022-09-09T06:20:01.176Z,29845.3
2022-09-09T06:21:00.930Z,30490.3
2022-09-09T06:22:00.918Z,31135.3
2022-09-09T06:23:00.923Z,31505.0
2022-09-09T06:24:01.406Z,31874.7
2022-09-09T06:26:01.027Z,32517.5
2022-09-09T06:27:00.919Z,32790.6
2022-09-09T06:28:00.915Z,32701.3
2022-09-09T06:29:00.960Z,32611.9
2022-09-09T06:31:01.307Z,34572.9
2022-09-09T06:32:00.969Z,36623.1
2022-09-09T06:33:00.919Z,37656.7
2022-09-09T06:34:00.970Z,38690.3
2022-09-09T06:35:01.141Z,39723.9
2022-09-09T06:36:00.946Z,40694.9
2022-09-09T06:37:00.922Z,41665.8
2022-09-09T06:38:01.078Z,43487.0
2022-09-09T06:39:00.963Z,45308.2
2022-09-09T06:40:01.190Z,47129.4
2022-09-09T06:41:00.934Z,48261.6
2022-09-09T06:42:00.926Z,49393.8
2022-09-09T06:43:00.924Z,50725.3
2022-09-09T06:44:00.945Z,52056.9
2022-09-09T06:46:00.921Z,52119.1
2022-09-09T06:47:01.065Z,50849.7
2022-09-09T06:48:00.926Z,51691.5
2022-09-09T06:49:01.391Z,52533.2
2022-09-09T06:50:01.146Z,53374.9
2022-09-09T06:51:00.929Z,53837.6
2022-09-09T06:52:00.927Z,54300.3
2022-09-09T06:53:00.933Z,53246.9
2022-09-09T06:54:00.926Z,52193.5
2022-09-09T06:55:01.112Z,51140.1
2022-09-09T06:56:02.023Z,50804.9
2022-09-09T06:57:07.770Z,50469.7
2022-09-09T06:58:00.926Z,51406.9
2022-09-09T06:59:00.928Z,52344.1
2022-09-09T07:01:00.971Z,53244.0
2022-09-09T07:02:00.973Z,53206.7
2022-09-09T07:03:00.963Z,52508.7
2022-09-09T07:04:00.927Z,51985.1
2022-09-09T07:05:01.142Z,51461.6
2022-09-09T07:06:00.933Z,50550.7
2022-09-09T07:07:00.993Z,49639.9
2022-09-09T07:08:01.007Z,49396.3
2022-09-09T07:09:00.935Z,48939.9
2022-09-09T07:10:02.838Z,48483.5
2022-09-09T07:11:00.936Z,47888.7
2022-09-09T07:12:01.001Z,47293.8
2022-09-09T07:13:01.008Z,45952.5
2022-09-09T07:14:00.993Z,45014.5
2022-09-09T07:16:01.023Z,44595.1
2022-09-09T07:17:00.938Z,45113.7
2022-09-09T07:18:00.926Z,45632.4
2022-09-09T07:19:00.959Z,46764.5
2022-09-09T07:20:01.155Z,47896.5
2022-09-09T07:21:00.927Z,48762.8
2022-09-09T07:22:00.995Z,49629.1
2022-09-09T07:23:00.932Z,50495.3
2022-09-09T07:24:01.009Z,52301.4
2022-09-09T07:25:01.146Z,54107.5
2022-09-09T07:26:00.933Z,55305.0
2022-09-09T07:27:00.932Z,56502.5
2022-09-09T07:28:01.003Z,57700.1
2022-09-09T07:29:00.931Z,58443.9
2022-09-09T07:31:01.087Z,59975.7
2022-09-09T07:32:00.928Z,60763.7
2022-09-09T07:33:00.974Z,61551.6
2022-09-09T07:34:00.946Z,60217.8
2022-09-09T07:36:00.943Z,58694.7
2022-09-09T07:37:00.932Z,58505.3
2022-09-09T07:38:00.935Z,58316.0
2022-09-09T07:39:00.939Z,57538.3
2022-09-09T07:40:01.260Z,56760.5
2022-09-09T07:41:00.938Z,56084.1
2022-09-09T07:42:01.969Z,55407.7
2022-09-09T07:43:00.943Z,54731.3
2022-09-09T07:44:00.939Z,54958.8
2022-09-09T07:46:00.968Z,55080.7
2022-09-09T07:47:01.011Z,54975.2
2022-09-09T07:48:02.055Z,54869.7
2022-09-09T07:49:00.939Z,55730.5
2022-09-09T07:50:01.204Z,56591.3
2022-09-09T07:51:01.011Z,57371.7
2022-09-09T07:52:01.010Z,58152.2
2022-09-09T07:53:00.939Z,58932.7
2022-09-09T07:54:00.939Z,59493.1
2022-09-09T07:56:00.941Z,61070.2
2022-09-09T07:57:00.941Z,62086.9
2022-09-09T07:58:00.937Z,63103.7
2022-09-09T07:59:00.941Z,63267.0
2022-09-09T08:01:00.943Z,63535.9
2022-09-09T08:02:00.983Z,63641.4
2022-09-09T08:03:01.001Z,63746.9
2022-09-09T08:04:01.034Z,64219.9
2022-09-09T08:05:17.618Z,64692.9
2022-09-09T08:06:00.941Z,64828.7
2022-09-09T08:07:00.969Z,64964.5
2022-09-09T08:08:01.007Z,65100.3
2022-09-09T08:09:01.198Z,65317.7
2022-09-09T09:15:02.223Z,65535.0
2022-09-09T09:30:28.939Z,65535.0
2022-09-09T09:45:01.746Z,65535.0
2022-09-09T10:15:01.987Z,65535.0
2022-09-09T10:30:01.964Z,65535.0
2022-09-09T10:45:01.910Z,65535.0
2022-09-09T11:45:01.786Z,65535.0
2022-09-09T12:00:02.706Z,65535.0
2022-09-09T12:15:11.763Z,65535.0
2022-09-09T12:45:01.818Z,65535.0
2022-09-09T13:30:01.811Z,65535.0
2022-09-09T13:45:01.818Z,65535.0
2022-09-09T14:00:07.181Z,65535.0
2022-09-09T14:15:02.083Z,65535.0
2022-09-09T14:59:01.079Z,64904.1
2022-09-09T15:01:01.130Z,63888.0
2022-09-09T15:02:01.084Z,63502.9
2022-09-09T15:03:01.157Z,63117.7
2022-09-09T15:11:01.081Z,62847.2
2022-09-09T15:12:01.087Z,62576.7
2022-09-09T15:13:01.078Z,62306.1
2022-09-09T15:14:01.081Z,62575.5
2022-09-09T15:16:01.105Z,62915.7
2022-09-09T15:17:01.102Z,62986.5
2022-09-09T15:18:01.083Z,63057.3
2022-09-09T15:19:01.082Z,62713.5
2022-09-09T15:21:01.084Z,62034.5
2022-09-09T15:22:01.080Z,61699.5
2022-09-09T15:23:01.080Z,61364.4
2022-09-09T15:24:01.088Z,61069.4
2022-09-09T15:26:01.077Z,60177.1
2022-09-09T15:27:01.099Z,59579.9
2022-09-09T15:28:01.084Z,58982.6
2022-09-09T15:29:01.151Z,57746.9
2022-09-09T15:30:01.790Z,56511.1
2022-09-09T15:31:01.158Z,54888.7
2022-09-09T15:32:01.078Z,53266.3
2022-09-09T15:33:01.104Z,51643.9
2022-09-09T15:34:01.479Z,50236.5
2022-09-09T15:35:01.893Z,48829.1
2022-09-09T15:36:01.080Z,47861.9
2022-09-09T15:37:01.078Z,46894.6
2022-09-09T15:38:01.078Z,45927.3
2022-09-09T15:39:01.084Z,45607.7
2022-09-09T15:41:01.082Z,46155.8
2022-09-09T15:42:01.076Z,47023.6
2022-09-09T15:43:01.076Z,47891.4
2022-09-09T15:44:01.078Z,49488.7
2022-09-09T15:46:01.094Z,52849.8
2022-09-09T15:47:01.077Z,54613.7
2022-09-09T15:48:01.076Z,56377.5
2022-09-09T15:49:01.103Z,57214.1
2022-09-09T15:51:01.094Z,57834.6
2022-09-09T15:52:01.079Z,57618.6
2022-09-09T15:53:01.089Z,57402.6
2022-09-09T15:54:01.078Z,55916.5
2022-09-09T15:55:01.879Z,54430.5
2022-09-09T15:56:01.073Z,52063.7
2022-09-09T15:57:01.076Z,49696.9
2022-09-09T15:58:01.079Z,47330.1
2022-09-09T15:59:01.081Z,44691.1
2022-09-09T16:01:01.099Z,39431.7
2022-09-09T16:02:06.194Z,36811.4
2022-09-09T16:03:01.084Z,34191.1
2022-09-09T16:04:01.324Z,32223.2
2022-09-09T16:06:01.167Z,28623.7
2022-09-09T16:07:01.077Z,26992.1
2022-09-09T16:08:01.100Z,25360.5
2022-09-09T16:09:01.086Z,24190.1
2022-09-09T16:11:01.079Z,22023.9
2022-09-09T16:12:01.089Z,21028.3
2022-09-09T16:13:01.084Z,20032.6
2022-09-09T16:14:01.119Z,18917.7
2022-09-09T16:16:01.164Z,16392.2
2022-09-09T16:17:01.082Z,14981.7
2022-09-09T16:18:01.211Z,13571.1
2022-09-09T16:19:01.151Z,12263.7
2022-09-09T16:20:01.422Z,10956.3
2022-09-09T16:21:01.325Z,9980.6
2022-09-09T16:22:01.089Z,9004.9
2022-09-09T16:23:01.081Z,8029.1
2022-09-09T16:24:01.084Z,7157.1
2022-09-09T16:26:05.118Z,5500.4
2022-09-09T16:27:01.102Z,4715.7
2022-09-09T16:28:01.093Z,3930.9
2022-09-09T16:29:01.087Z,3539.8
2022-09-09T16:30:01.834Z,3148.7
2022-09-09T16:31:01.103Z,3239.2
2022-09-09T16:32:03.752Z,3329.7
2022-09-09T16:33:01.112Z,3420.3
2022-09-09T16:34:01.077Z,3495.3
2022-09-09T16:35:01.911Z,3570.3
2022-09-09T16:36:01.086Z,3567.6
2022-09-09T16:37:01.107Z,3564.9
2022-09-09T16:38:01.444Z,3562.3
2022-09-09T16:39:01.085Z,3545.7
2022-09-09T16:40:02.538Z,3529.1
2022-09-09T16:41:01.087Z,3515.5
2022-09-09T16:42:01.191Z,3502.0
2022-09-09T16:43:01.090Z,3488.5
2022-09-09T16:44:01.083Z,3492.9
2022-09-09T16:46:01.117Z,3462.5
2022-09-09T16:47:01.213Z,3427.7
2022-09-09T16:48:01.079Z,3392.8
2022-09-09T16:49:01.094Z,3339.1
2022-09-09T16:51:01.080Z,3217.7
2022-09-09T16:52:01.134Z,3150.0
2022-09-09T16:53:01.113Z,3082.3
2022-09-09T16:54:01.082Z,3019.5
2022-09-09T16:56:01.090Z,2872.7
2022-09-09T16:57:01.100Z,2788.8
2022-09-09T16:58:01.094Z,2704.9
2022-09-09T16:59:01.086Z,2588.3
2022-09-09T17:00:03.276Z,2471.7
2022-09-09T17:01:01.088Z,2353.6
2022-09-09T17:02:01.184Z,2235.5
2022-09-09T17:03:02.168Z,2117.5
2022-09-09T17:04:01.714Z,2010.1
2022-09-09T17:06:02.120Z,1813.1
2022-09-09T17:07:01.091Z,1723.5
2022-09-09T17:08:01.068Z,1633.8
2022-09-09T17:09:01.121Z,1564.9
2022-09-09T17:11:01.154Z,1445.9
2022-09-09T17:12:01.099Z,1395.7
2022-09-09T17:13:01.119Z,1345.5
2022-09-09T17:14:01.095Z,1304.7
2022-09-09T17:16:03.081Z,1231.6
2022-09-09T17:17:13.938Z,1199.3
2022-09-09T17:18:01.079Z,1167.1
2022-09-09T17:19:01.091Z,1146.7
2022-09-09T17:20:01.354Z,1126.4
2022-09-09T17:21:01.113Z,1116.6
2022-09-09T17:22:15.939Z,1106.8
2022-09-09T17:23:01.084Z,1097.0
2022-09-09T17:24:01.096Z,1092.4
2022-09-09T17:25:04.688Z,1087.8
2022-09-09T17:26:01.103Z,1084.1
2022-09-09T17:27:01.094Z,1080.3
2022-09-09T17:28:01.099Z,1076.6
2022-09-09T17:29:01.101Z,1071.7
2022-09-09T17:31:01.128Z,1057.0
2022-09-09T17:32:01.111Z,1047.1
2022-09-09T17:33:01.102Z,1037.3
2022-09-09T17:34:01.137Z,1019.1
2022-09-09T17:35:01.488Z,1001.0
2022-09-09T17:36:01.100Z,976.4
2022-09-09T17:37:01.094Z,951.8
2022-09-09T17:38:01.099Z,927.2
2022-09-09T17:39:01.097Z,898.3
2022-09-09T17:40:01.411Z,869.3
2022-09-09T17:41:01.121Z,838.4
2022-09-09T17:42:01.100Z,807.5
2022-09-09T17:43:01.099Z,776.5
2022-09-09T17:44:01.152Z,745.3
2022-09-09T17:46:01.203Z,683.9
2022-09-09T17:47:01.102Z,653.7
2022-09-09T17:48:01.108Z,623.5
2022-09-09T17:49:01.103Z,595.2
2022-09-09T17:50:01.980Z,566.9
2022-09-09T17:51:01.100Z,540.2
2022-09-09T17:52:01.118Z,513.5
2022-09-09T17:53:01.117Z,486.9
2022-09-09T17:54:06.108Z,462.0
2022-09-09T17:55:01.355Z,437.1
2022-09-09T17:56:01.104Z,413.7
2022-09-09T17:57:01.133Z,390.3
2022-09-09T17:58:01.111Z,366.9
2022-09-09T17:59:01.111Z,345.3
2022-09-09T18:01:01.104Z,304.1
2022-09-09T18:02:01.182Z,284.5
2022-09-09T18:03:01.192Z,264.9
2022-09-09T18:04:01.122Z,247.4
2022-09-09T18:05:16.129Z,229.9
2022-09-09T18:06:01.234Z,214.3
2022-09-09T18:07:01.107Z,198.8
2022-09-09T18:08:01.247Z,183.3
2022-09-09T18:09:01.110Z,169.2
2022-09-09T18:10:01.913Z,155.1
2022-09-09T18:11:01.349Z,142.9
2022-09-09T18:12:01.103Z,130.7
2022-09-09T18:13:01.201Z,118.5
2022-09-09T18:14:01.119Z,108.1
2022-09-09T18:16:01.390Z,89.0
2022-09-09T18:17:01.126Z,80.3
2022-09-09T18:18:01.109Z,71.5
2022-09-09T18:19:01.107Z,64.5
2022-09-09T18:20:02.277Z,57.5
2022-09-09T18:21:01.784Z,52.1
2022-09-09T18:22:02.305Z,46.6
2022-09-09T18:23:01.117Z,41.1
2022-09-09T18:24:01.125Z,36.9
2022-09-09T18:25:01.143Z,32.7
2022-09-09T18:26:01.350Z,29.5
2022-09-09T18:27:01.187Z,26.2
2022-09-09T18:28:01.107Z,22.9
2022-09-09T18:29:01.130Z,20.5
2022-09-09T18:31:01.519Z,16.1
2022-09-09T18:32:01.110Z,14.3
2022-09-09T18:33:01.110Z,12.4
2022-09-09T18:34:01.113Z,10.9
2022-09-09T18:35:01.188Z,9.5
2022-09-09T18:37:01.306Z,8.4
2022-09-09T18:38:01.097Z,7.3
2022-09-09T18:39:01.097Z,6.3
2022-09-09T18:40:01.143Z,5.5
2022-09-09T18:41:01.159Z,4.7
2022-09-09T18:42:01.375Z,4.2
2022-09-09T18:43:01.386Z,3.7
2022-09-09T18:44:01.105Z,3.1
2022-09-09T18:45:01.125Z,2.7
2022-09-09T18:46:01.958Z,2.3
2022-09-09T18:47:01.546Z,2.1
2022-09-09T18:48:01.104Z,1.8
2022-09-09T18:49:01.098Z,1.5
2022-09-09T18:50:01.099Z,1.3
2022-09-09T18:51:01.184Z,1.1
2022-09-09T18:52:01.353Z,0.9
2022-09-09T18:53:01.146Z,0.8
2022-09-09T18:54:01.104Z,0.7
2022-09-09T18:55:01.105Z,0.5
2022-09-09T18:57:01.638Z,0.4
2022-09-09T18:58:01.098Z,0.3
2022-09-09T19:00:01.107Z,0.2
2022-09-09T19:01:01.178Z,0.1
2022-09-09T21:24:01.726Z,0.1
2022-09-09T21:26:01.392Z,0.2
2022-09-09T21:27:02.121Z,0.3
2022-09-09T21:29:01.327Z,0.4
2022-09-09T21:30:01.138Z,0.5
2022-09-09T21:32:01.269Z,0.6
2022-09-09T21:33:01.416Z,0.7
2022-09-09T21:35:01.354Z,0.8
2022-09-09T21:36:02.635Z,0.9
2022-09-09T21:38:01.105Z,1.0
2022-09-09T21:45:01.496Z,1.0
2022-09-09T22:00:01.170Z,1.0
2022-09-09T22:15:02.060Z,1.0
2022-09-09T22:17:01.819Z,0.9
2022-09-09T22:19:01.106Z,0.8
2022-09-09T22:20:16.121Z,0.7
2022-09-09T22:24:02.191Z,0.6
2022-09-09T22:25:01.142Z,0.5
2022-09-09T22:27:01.314Z,0.4
2022-09-09T22:28:01.109Z,0.3
2022-09-09T22:30:01.148Z,0.2
2022-09-09T22:31:01.181Z,0.1
